Time;durP1;ratioP1;P1;durP2;ratioP2;P2;SDS_P1;SDS_P2;PMS_P1;PMS_P2;Temp;Humidity;BMP_temperature;BMP_pressure;BME280_temperature;BME280_humidity;BME280_pressure;Samples;Min_cycle;Max_cycle;Signal;HPM_P1;HPM_P2
2023/09/03 00:00:23;;;;;;;7.60;5.80;;;;;;;27.15;37.23;101052.14;103929;1292;69277;-85
2023/09/03 00:02:50;;;;;;;8.40;5.70;;;;;;;27.14;37.20;101051.33;103864;1292;69385;-90
2023/09/03 00:05:24;;;;;;;9.00;6.30;;;;;;;27.14;37.35;101055.98;103839;1288;69183;-85
2023/09/03 00:07:50;;;;;;;6.70;5.80;;;;;;;27.13;37.37;101055.78;103900;1288;69252;-86
2023/09/03 00:10:16;;;;;;;9.80;6.00;;;;;;;27.12;37.37;101052.65;103891;1290;69203;-85
2023/09/03 00:12:41;;;;;;;8.60;6.50;;;;;;;27.12;37.32;101051.77;103843;1288;69282;-85
2023/09/03 00:15:07;;;;;;;8.50;6.00;;;;;;;27.11;37.40;101054.27;103913;1288;69229;-85
2023/09/03 00:17:33;;;;;;;8.50;5.90;;;;;;;27.11;37.36;101056.91;103895;1289;69290;-85
2023/09/03 00:19:58;;;;;;;7.20;5.70;;;;;;;27.10;37.46;101053.10;103866;1291;69044;-85
2023/09/03 00:22:24;;;;;;;8.90;5.50;;;;;;;27.09;37.58;101057.75;103870;1288;69347;-85
2023/09/03 00:24:49;;;;;;;6.80;5.90;;;;;;;27.09;37.68;101056.85;103848;1288;69115;-85
2023/09/03 00:27:15;;;;;;;9.50;5.90;;;;;;;27.08;37.60;101051.69;103788;1290;69340;-85
2023/09/03 00:29:45;;;;;;;7.60;5.60;;;;;;;27.08;37.66;101047.92;103794;1291;69214;-90
2023/09/03 00:32:18;;;;;;;6.30;5.50;;;;;;;27.07;37.66;101045.45;103771;1291;69209;-85
2023/09/03 00:34:45;;;;;;;6.50;5.40;;;;;;;27.07;37.72;101046.59;103915;1292;69212;-85
2023/09/03 00:37:12;;;;;;;10.00;5.90;;;;;;;27.06;37.77;101041.38;103878;1290;69248;-85
2023/09/03 00:39:37;;;;;;;7.90;6.20;;;;;;;27.07;37.82;101039.59;103893;1291;69634;-85
2023/09/03 00:42:03;;;;;;;10.00;5.70;;;;;;;27.06;37.69;101041.19;103847;1290;69642;-86
2023/09/03 00:44:28;;;;;;;7.10;5.60;;;;;;;27.05;37.74;101038.67;103780;1290;69294;-85
2023/09/03 00:46:54;;;;;;;7.90;6.00;;;;;;;27.05;37.83;101035.84;103879;1293;69244;-85
2023/09/03 00:49:20;;;;;;;6.90;5.20;;;;;;;27.05;37.92;101028.71;103726;1295;69346;-85
2023/09/03 00:51:45;;;;;;;6.70;5.70;;;;;;;27.04;37.90;101028.05;103656;1293;69279;-85
2023/09/03 00:54:11;;;;;;;7.10;5.80;;;;;;;27.03;37.97;101020.88;103691;1291;69726;-85
2023/09/03 00:56:45;;;;;;;6.60;5.30;;;;;;;27.03;37.96;101024.14;103790;1288;69720;-90
2023/09/03 00:59:11;;;;;;;6.80;5.30;;;;;;;27.03;37.91;101024.52;103962;1288;69153;-85
2023/09/03 01:01:36;;;;;;;9.30;6.00;;;;;;;27.03;37.87;101023.38;103880;1291;69205;-85
2023/09/03 01:04:02;;;;;;;6.10;5.40;;;;;;;27.03;38.09;101021.93;103804;1291;69255;-85
2023/09/03 01:06:27;;;;;;;7.00;5.50;;;;;;;27.02;38.11;101022.73;103849;1288;69266;-85
2023/09/03 01:08:53;;;;;;;8.90;5.50;;;;;;;27.01;38.06;101025.20;103823;1293;69199;-86
2023/09/03 01:11:43;;;;;;;6.60;5.60;;;;;;;27.02;38.01;101027.94;103840;1291;69255;-85
2023/09/03 01:14:33;;;;;;;8.60;6.00;;;;;;;27.00;38.12;101025.48;103804;1288;69505;-85
2023/09/03 01:20:14;;;;;;;6.00;5.30;;;;;;;26.98;38.05;101018.85;104240;1287;69337;-85
2023/09/03 01:23:11;;;;;;;8.50;5.40;;;;;;;26.98;38.12;101020.09;104242;1288;69071;-85
2023/09/03 01:25:49;;;;;;;10.40;5.40;;;;;;;26.97;38.15;101018.20;104138;1288;74479;-85
2023/09/03 01:28:20;;;;;;;7.30;5.80;;;;;;;26.97;38.24;101016.61;104024;1286;69218;-85
2023/09/03 01:30:47;;;;;;;6.50;5.60;;;;;;;26.96;38.21;101018.57;104086;1291;69146;-85
2023/09/03 01:33:12;;;;;;;5.60;5.10;;;;;;;26.96;38.16;101018.58;104113;1287;69273;-85
2023/09/03 01:35:38;;;;;;;8.00;5.60;;;;;;;26.96;38.42;101017.39;103986;1288;69264;-86
2023/09/03 01:38:03;;;;;;;6.60;5.40;;;;;;;26.96;38.29;101022.96;103785;1289;69347;-85
2023/09/03 01:40:29;;;;;;;6.60;5.10;;;;;;;26.96;38.44;101022.46;104203;1288;69272;-86
2023/09/03 01:42:54;;;;;;;8.50;5.50;;;;;;;26.95;38.20;101021.65;104067;1291;69151;-85
2023/09/03 01:45:20;;;;;;;6.50;5.40;;;;;;;26.94;38.28;101023.04;103817;1294;69270;-85
2023/09/03 01:47:48;;;;;;;7.80;5.30;;;;;;;26.94;38.20;101018.51;103849;1288;69663;-85
2023/09/03 01:50:48;;;;;;;6.00;5.10;;;;;;;26.94;38.28;101016.61;104050;1288;69798;-85
2023/09/03 01:55:57;;;;;;;6.60;5.20;;;;;;;26.92;38.24;101019.38;104240;1287;69139;-85
2023/09/03 01:58:26;;;;;;;8.60;5.60;;;;;;;26.92;38.19;101019.06;103993;1289;69260;-85
2023/09/03 02:00:52;;;;;;;8.30;5.40;;;;;;;26.92;38.12;101015.28;104099;1287;73389;-85
2023/09/03 02:03:17;;;;;;;6.50;5.40;;;;;;;26.92;38.08;101015.39;103973;1289;69256;-85
2023/09/03 02:05:43;;;;;;;6.30;5.30;;;;;;;26.92;38.26;101014.66;103739;1288;69257;-86
2023/09/03 02:08:08;;;;;;;7.00;5.30;;;;;;;26.92;38.28;101012.66;103929;1288;69252;-85
2023/09/03 02:10:33;;;;;;;7.10;5.50;;;;;;;26.92;38.17;101013.23;104044;1288;69255;-85
2023/09/03 02:12:59;;;;;;;7.30;5.10;;;;;;;26.91;38.34;101007.20;103760;1288;69230;-85
2023/09/03 02:15:24;;;;;;;6.20;5.20;;;;;;;26.91;38.25;101010.05;103969;1288;69287;-85
2023/09/03 02:17:50;;;;;;;5.70;5.10;;;;;;;26.91;38.26;101005.14;104039;1288;69320;-85
2023/09/03 02:22:49;;;;;;;6.80;5.30;;;;;;;26.90;38.22;101008.50;104198;1286;67347;-84
2023/09/03 02:25:15;;;;;;;6.40;5.30;;;;;;;26.90;38.22;101005.58;104065;1286;69296;-84
2023/09/03 02:27:40;;;;;;;6.60;5.30;;;;;;;26.89;38.05;101006.35;104053;1291;69250;-85
2023/09/03 02:30:06;;;;;;;6.30;5.70;;;;;;;26.89;38.01;101007.80;104110;1292;69269;-85
2023/09/03 02:32:32;;;;;;;9.00;5.70;;;;;;;26.88;38.19;101004.83;103920;1292;69273;-85
2023/09/03 02:34:57;;;;;;;6.80;5.50;;;;;;;26.88;37.99;100999.73;104110;1287;69259;-85
2023/09/03 02:37:23;;;;;;;6.40;5.50;;;;;;;26.88;37.95;101000.55;104028;1286;69257;-84
2023/09/03 02:39:48;;;;;;;8.50;5.20;;;;;;;26.87;38.00;101000.91;104124;1291;69255;-84
2023/09/03 02:42:14;;;;;;;8.30;5.20;;;;;;;26.87;38.04;100998.22;104169;1286;69189;-85
2023/09/03 02:44:39;;;;;;;7.70;4.80;;;;;;;26.86;37.85;100998.71;103953;1286;69315;-85
2023/09/03 02:47:05;;;;;;;6.70;5.10;;;;;;;26.85;37.84;100999.08;104009;1289;69267;-85
2023/09/03 02:49:30;;;;;;;7.30;5.50;;;;;;;26.86;37.95;101000.25;104154;1289;69206;-85
2023/09/03 02:51:56;;;;;;;6.70;5.30;;;;;;;26.86;37.90;100999.79;104143;1291;69280;-84
2023/09/03 02:54:21;;;;;;;5.70;5.10;;;;;;;26.85;37.86;101000.58;104043;1286;67588;-85
2023/09/03 02:56:47;;;;;;;5.70;5.20;;;;;;;26.84;37.78;100999.81;104184;1286;69235;-85
2023/09/03 02:59:21;;;;;;;7.40;5.20;;;;;;;26.84;37.72;100997.09;104072;1286;69186;-91
2023/09/03 03:01:46;;;;;;;7.90;5.40;;;;;;;26.84;37.74;100993.90;104462;1287;73750;-85
2023/09/03 03:04:12;;;;;;;7.70;5.40;;;;;;;26.84;37.79;100993.78;104128;1292;69260;-85
2023/09/03 03:06:37;;;;;;;6.50;5.20;;;;;;;26.83;37.76;100993.99;104043;1292;69246;-85
2023/09/03 03:09:04;;;;;;;7.30;5.00;;;;;;;26.83;37.93;100996.84;104087;1287;69212;-85
2023/09/03 03:11:30;;;;;;;5.30;4.80;;;;;;;26.82;37.85;100994.23;103910;1286;69332;-85
2023/09/03 03:13:55;;;;;;;7.30;5.10;;;;;;;26.82;37.93;100997.73;104100;1302;69271;-85
2023/09/03 03:16:21;;;;;;;6.70;4.60;;;;;;;26.82;37.94;100998.61;104030;1286;69268;-85
2023/09/03 03:18:53;;;;;;;7.40;5.00;;;;;;;26.82;38.10;100999.80;103909;1298;69094;-85
2023/09/03 03:21:19;;;;;;;5.70;5.10;;;;;;;26.81;37.92;101001.20;103996;1291;69263;-85
2023/09/03 03:23:51;;;;;;;5.90;4.80;;;;;;;26.81;37.89;100998.69;104218;1286;69236;-85
2023/09/03 03:26:17;;;;;;;6.40;5.00;;;;;;;26.80;37.80;100999.66;104163;1286;69090;-85
2023/09/03 03:28:43;;;;;;;5.40;4.60;;;;;;;26.80;37.72;101000.34;104008;1289;69167;-85
2023/09/03 03:31:15;;;;;;;6.00;4.80;;;;;;;26.80;37.74;101002.10;103940;1289;69369;-85
2023/09/03 03:33:41;;;;;;;6.00;4.30;;;;;;;26.79;37.85;101003.29;103969;1286;69169;-85
2023/09/03 03:36:07;;;;;;;5.30;4.50;;;;;;;26.79;37.79;101003.14;104041;1286;69336;-85
2023/09/03 03:38:33;;;;;;;5.10;4.30;;;;;;;26.78;37.60;101003.96;103808;1291;296605;-85
2023/09/03 03:41:08;;;;;;;8.20;4.30;;;;;;;26.78;37.78;101006.48;104071;1286;69239;-91
2023/09/03 03:43:37;;;;;;;6.10;4.50;;;;;;;26.78;37.69;101004.85;104044;1290;69027;-85
2023/09/03 03:46:06;;;;;;;5.00;4.50;;;;;;;26.77;37.69;101004.09;103917;1289;69137;-85
2023/09/03 03:48:32;;;;;;;5.20;4.50;;;;;;;26.77;37.50;101004.05;103750;1287;73769;-85
2023/09/03 03:50:58;;;;;;;4.90;4.40;;;;;;;26.77;37.64;101006.16;104027;1291;69324;-85
2023/09/03 03:53:24;;;;;;;5.30;4.40;;;;;;;26.76;37.59;101008.08;104013;1286;69215;-85
2023/09/03 03:56:16;;;;;;;5.10;4.60;;;;;;;26.75;37.54;101011.85;103927;1288;69221;-85
2023/09/03 03:58:43;;;;;;;5.00;4.00;;;;;;;26.75;37.68;101009.79;104013;1286;69783;-85
2023/09/03 04:01:19;;;;;;;7.50;4.60;;;;;;;26.75;37.69;101012.79;103940;1291;73587;-85
2023/09/03 04:03:46;;;;;;;5.60;4.30;;;;;;;26.75;37.57;101014.07;104096;1291;72849;-85
2023/09/03 04:06:11;;;;;;;6.20;4.70;;;;;;;26.74;37.56;101014.14;104110;1286;69258;-85
2023/09/03 04:08:38;;;;;;;6.20;4.20;;;;;;;26.75;37.66;101014.30;104023;1286;69362;-85
2023/09/03 04:11:08;;;;;;;8.20;4.70;;;;;;;26.74;37.63;101014.66;104197;1286;69203;-86
2023/09/03 04:13:36;;;;;;;6.30;4.40;;;;;;;26.74;37.70;101006.14;104295;1288;74756;-85
2023/09/03 04:16:06;;;;;;;9.50;4.40;;;;;;;26.73;37.77;101007.23;104769;1288;69263;-85
2023/09/03 04:18:31;;;;;;;5.20;4.70;;;;;;;26.73;37.77;101006.33;104194;1285;67629;-85
2023/09/03 04:20:57;;;;;;;6.00;4.00;;;;;;;26.73;37.63;101006.93;104228;1287;69278;-85
2023/09/03 04:23:26;;;;;;;6.20;4.50;;;;;;;26.73;37.66;101011.74;104064;1286;69270;-85
2023/09/03 04:26:00;;;;;;;6.10;4.30;;;;;;;26.73;37.58;101008.89;104044;1286;69251;-91
2023/09/03 04:28:28;;;;;;;4.80;4.00;;;;;;;26.73;37.55;101013.85;104268;1288;68252;-85
2023/09/03 04:30:54;;;;;;;8.80;3.90;;;;;;;26.73;37.56;101010.87;104078;1286;69233;-85
2023/09/03 04:33:20;;;;;;;8.60;4.30;;;;;;;26.73;37.56;101015.14;104080;1288;69211;-85
2023/09/03 04:35:46;;;;;;;5.50;4.10;;;;;;;26.73;37.51;101013.13;104346;1288;69251;-86
2023/09/03 04:38:11;;;;;;;6.50;4.40;;;;;;;26.72;37.37;101007.83;104369;1286;69247;-86
2023/09/03 04:40:37;;;;;;;14.40;4.40;;;;;;;26.72;37.32;101005.71;104717;1289;69259;-85
2023/09/03 04:43:03;;;;;;;6.10;3.90;;;;;;;26.72;37.42;101002.83;104926;1287;69226;-85
2023/09/03 04:45:29;;;;;;;5.90;4.50;;;;;;;26.72;37.44;101005.92;104888;1291;67803;-85
2023/09/03 04:47:56;;;;;;;5.10;4.00;;;;;;;26.73;37.38;101007.98;104719;1291;69208;-85
2023/09/03 04:50:21;;;;;;;5.60;4.10;;;;;;;26.72;37.26;101009.37;105156;1286;69172;-86
2023/09/03 04:52:55;;;;;;;5.00;4.20;;;;;;;26.73;37.31;101012.30;104415;1291;69436;-90
2023/09/03 04:55:21;;;;;;;6.10;4.00;;;;;;;26.73;37.42;101007.72;104208;1291;69203;-85
2023/09/03 04:57:47;;;;;;;6.50;4.20;;;;;;;26.72;37.23;101006.43;104305;1291;69247;-85
2023/09/03 05:00:13;;;;;;;4.90;4.10;;;;;;;26.73;37.21;101003.48;103990;1288;69349;-85
2023/09/03 05:02:38;;;;;;;5.20;3.80;;;;;;;26.73;37.23;101000.04;103987;1291;69157;-85
2023/09/03 05:05:04;;;;;;;5.40;4.10;;;;;;;26.72;37.07;101001.17;104194;1288;69132;-86
2023/09/03 05:07:30;;;;;;;6.30;4.30;;;;;;;26.72;37.00;101000.45;103960;1286;67851;-85
2023/09/03 05:09:56;;;;;;;9.10;4.00;;;;;;;26.72;37.12;101000.98;104131;1288;69062;-85
2023/09/03 05:12:21;;;;;;;5.10;3.80;;;;;;;26.72;37.16;100991.77;103946;1286;69122;-85
2023/09/03 05:14:47;;;;;;;5.50;4.30;;;;;;;26.72;37.02;100988.89;104039;1290;70472;-85
2023/09/03 05:17:13;;;;;;;6.60;4.10;;;;;;;26.72;37.05;100989.51;104168;1286;69235;-85
2023/09/03 05:22:12;;;;;;;5.80;3.80;;;;;;;26.71;37.03;100985.04;104215;1300;66905;-85
2023/09/03 05:24:37;;;;;;;6.60;4.00;;;;;;;26.72;36.77;100988.17;104061;1288;69278;-85
2023/09/03 05:27:03;;;;;;;6.70;4.00;;;;;;;26.72;36.88;100990.60;104057;1291;69291;-85
2023/09/03 05:29:29;;;;;;;5.10;4.00;;;;;;;26.71;36.89;100991.54;103996;1291;69279;-85
2023/09/03 05:31:54;;;;;;;5.80;4.10;;;;;;;26.72;36.84;100995.14;104176;1289;69818;-86
2023/09/03 05:34:20;;;;;;;6.20;4.10;;;;;;;26.72;36.74;100992.00;103770;1292;69238;-85
2023/09/03 05:36:45;;;;;;;5.90;4.00;;;;;;;26.71;36.88;100988.29;104058;1291;69196;-85
2023/09/03 05:39:11;;;;;;;4.80;4.10;;;;;;;26.71;36.79;100988.59;103818;1295;69258;-85
2023/09/03 05:41:37;;;;;;;6.90;4.60;;;;;;;26.72;36.65;100986.67;103892;1289;69263;-85
2023/09/03 05:44:06;;;;;;;5.90;4.10;;;;;;;26.71;36.78;100983.90;104132;1295;69191;-85
2023/09/03 05:49:05;;;;;;;4.50;3.90;;;;;;;26.72;36.83;100982.49;104176;1289;69117;-85
2023/09/03 05:51:30;;;;;;;6.00;3.90;;;;;;;26.72;36.77;100987.80;104012;1288;67545;-85
2023/09/03 05:53:56;;;;;;;7.10;4.10;;;;;;;26.72;36.80;100984.70;103977;1291;69267;-84
2023/09/03 05:56:21;;;;;;;5.00;4.10;;;;;;;26.73;36.74;100989.75;103962;1288;69242;-85
2023/09/03 05:58:47;;;;;;;6.50;4.40;;;;;;;26.74;36.66;100991.79;104078;1292;69439;-85
2023/09/03 06:01:13;;;;;;;6.60;3.90;;;;;;;26.74;36.52;100992.10;104031;1288;69196;-85
2023/09/03 06:03:39;;;;;;;6.90;4.00;;;;;;;26.75;36.68;100993.02;104001;1288;67493;-84
2023/09/03 06:06:05;;;;;;;5.40;4.00;;;;;;;26.75;36.64;100994.09;103998;1294;69275;-84
2023/09/03 06:08:31;;;;;;;6.60;4.40;;;;;;;26.77;36.68;100998.63;104086;1289;69151;-84
2023/09/03 06:10:57;;;;;;;4.50;3.90;;;;;;;26.78;36.63;100999.48;103995;1291;69325;-85
2023/09/03 06:15:56;;;;;;;4.30;3.70;;;;;;;26.80;36.57;101002.83;104325;1286;69592;-84
2023/09/03 06:18:22;;;;;;;4.20;3.60;;;;;;;26.81;36.46;101004.27;104029;1286;69319;-85
2023/09/03 06:20:48;;;;;;;5.70;3.50;;;;;;;26.81;36.58;101004.88;103867;1285;69322;-85
2023/09/03 06:23:16;;;;;;;4.40;3.40;;;;;;;26.82;36.45;101010.39;104126;1285;69267;-84
2023/09/03 06:25:42;;;;;;;5.80;4.00;;;;;;;26.83;36.42;101007.90;104187;1285;69247;-85
2023/09/03 06:28:08;;;;;;;5.30;3.70;;;;;;;26.83;36.48;101008.80;104284;1285;68032;-85
2023/09/03 06:30:34;;;;;;;6.20;4.10;;;;;;;26.84;36.57;101009.89;104350;1286;69266;-84
2023/09/03 06:32:59;;;;;;;5.10;3.70;;;;;;;26.84;36.58;101012.56;104511;1286;69168;-85
2023/09/03 06:35:25;;;;;;;4.90;3.40;;;;;;;26.85;36.54;101012.66;105046;1288;70411;-85
2023/09/03 06:37:50;;;;;;;3.60;3.30;;;;;;;26.86;36.59;101010.02;104125;1288;69328;-85
2023/09/03 06:42:49;;;;;;;4.80;3.30;;;;;;;26.86;36.45;101009.18;104264;1287;69186;-85
2023/09/03 06:45:15;;;;;;;5.30;3.30;;;;;;;26.87;36.47;101006.29;104180;1289;70046;-84
2023/09/03 06:47:40;;;;;;;4.30;3.80;;;;;;;26.87;36.38;101003.75;104115;1288;69246;-85
2023/09/03 06:50:07;;;;;;;3.80;3.30;;;;;;;26.88;36.33;101007.40;104053;1288;72516;-85
2023/09/03 06:52:33;;;;;;;5.10;3.70;;;;;;;26.88;36.52;101006.98;103818;1288;70495;-86
2023/09/03 06:54:59;;;;;;;4.50;3.40;;;;;;;26.88;36.36;101008.02;104325;1288;69168;-85
2023/09/03 06:57:24;;;;;;;4.00;3.60;;;;;;;26.89;36.41;101009.55;104103;1291;69298;-85
2023/09/03 06:59:50;;;;;;;3.80;3.40;;;;;;;26.90;36.39;101006.08;104014;1287;69264;-85
2023/09/03 07:02:15;;;;;;;5.50;3.80;;;;;;;26.91;36.38;101004.58;103867;1288;69256;-85
2023/09/03 07:04:41;;;;;;;4.00;3.60;;;;;;;26.91;36.16;101006.73;104111;1287;69339;-85
2023/09/03 07:07:08;;;;;;;4.40;3.30;;;;;;;26.91;36.29;101002.23;104019;1288;69288;-85
2023/09/03 07:09:33;;;;;;;4.00;3.50;;;;;;;26.92;36.17;101002.86;104052;1288;69144;-85
2023/09/03 07:12:02;;;;;;;4.00;3.60;;;;;;;26.92;36.38;100999.64;103820;1288;69271;-85
2023/09/03 07:14:32;;;;;;;4.80;4.10;;;;;;;26.93;36.23;101000.98;104066;1288;69480;-85
2023/09/03 07:16:57;;;;;;;3.90;3.40;;;;;;;26.93;36.23;101002.01;103857;1288;69039;-85
2023/09/03 07:19:23;;;;;;;4.50;4.00;;;;;;;26.94;36.14;101005.52;104081;1287;69428;-86
2023/09/03 07:21:48;;;;;;;3.80;3.30;;;;;;;26.94;36.04;101006.13;103765;1288;69189;-85
2023/09/03 07:24:14;;;;;;;3.80;3.30;;;;;;;26.96;36.10;101008.58;103919;1288;69328;-85
2023/09/03 07:26:39;;;;;;;4.40;3.50;;;;;;;26.96;36.08;101011.02;104109;1292;70499;-85
2023/09/03 07:29:05;;;;;;;3.70;3.30;;;;;;;26.97;36.08;101009.98;104069;1287;69227;-85
2023/09/03 07:31:31;;;;;;;3.70;3.20;;;;;;;26.98;36.16;101009.20;104114;1288;69274;-85
2023/09/03 07:33:59;;;;;;;3.70;3.40;;;;;;;26.98;36.11;101012.91;103702;1296;70423;-85
2023/09/03 07:36:24;;;;;;;5.50;3.40;;;;;;;26.98;36.14;101009.65;104095;1291;69184;-85
2023/09/03 07:38:50;;;;;;;4.60;3.30;;;;;;;26.98;36.17;101010.83;104021;1291;69193;-85
2023/09/03 07:41:15;;;;;;;4.20;3.40;;;;;;;26.99;35.98;101010.33;103812;1290;69259;-85
2023/09/03 07:43:42;;;;;;;3.80;3.20;;;;;;;26.99;35.86;101012.48;104111;1291;69609;-85
2023/09/03 07:46:07;;;;;;;4.20;3.70;;;;;;;27.00;35.88;101015.88;103945;1288;69242;-85
2023/09/03 07:48:34;;;;;;;4.20;3.40;;;;;;;27.01;35.98;101014.93;103875;1294;69648;-85
2023/09/03 07:51:00;;;;;;;3.50;3.20;;;;;;;27.02;35.83;101016.00;104218;1288;71095;-84
2023/09/03 07:53:25;;;;;;;5.20;3.70;;;;;;;27.02;35.93;101018.74;104085;1291;69248;-85
2023/09/03 07:55:51;;;;;;;4.90;3.40;;;;;;;27.02;35.80;101018.89;104005;1287;69348;-85
2023/09/03 07:58:16;;;;;;;3.80;3.50;;;;;;;27.03;35.92;101022.09;104095;1287;69286;-85
2023/09/03 08:00:42;;;;;;;3.90;3.30;;;;;;;27.03;35.88;101022.43;104079;1291;74507;-85
2023/09/03 08:03:07;;;;;;;4.80;3.60;;;;;;;27.04;35.96;101022.11;103842;1289;69204;-85
2023/09/03 08:05:33;;;;;;;4.00;3.50;;;;;;;27.05;35.94;101015.95;104141;1291;69278;-85
2023/09/03 08:07:58;;;;;;;3.80;3.40;;;;;;;27.05;35.71;101011.30;104100;1287;69129;-85
2023/09/03 08:10:24;;;;;;;4.30;3.40;;;;;;;27.06;35.69;101010.52;104144;1291;67206;-85
2023/09/03 08:12:52;;;;;;;4.00;3.40;;;;;;;27.06;35.79;101008.86;103962;1291;69216;-85
2023/09/03 08:15:18;;;;;;;3.50;3.10;;;;;;;27.07;35.63;101007.25;104007;1288;69199;-85
2023/09/03 08:17:43;;;;;;;4.90;3.50;;;;;;;27.08;35.80;101004.90;104032;1288;69181;-85
2023/09/03 08:20:09;;;;;;;3.70;3.30;;;;;;;27.09;35.81;101006.55;104135;1289;67037;-85
2023/09/03 08:22:35;;;;;;;4.00;3.50;;;;;;;27.08;35.72;101005.82;104162;1291;69199;-85
2023/09/03 08:25:07;;;;;;;3.80;3.40;;;;;;;27.09;35.71;101002.61;104165;1288;69209;-90
2023/09/03 08:27:32;;;;;;;4.00;3.40;;;;;;;27.09;35.76;100999.81;104185;1288;69146;-84
2023/09/03 08:29:58;;;;;;;3.90;3.40;;;;;;;27.11;35.61;100996.11;104266;1291;69283;-85
2023/09/03 08:32:23;;;;;;;4.20;3.10;;;;;;;27.11;35.69;100988.62;104426;1287;67146;-85
2023/09/03 08:34:50;;;;;;;3.50;3.20;;;;;;;27.12;35.71;100986.48;104535;1289;69271;-85
2023/09/03 08:37:16;;;;;;;4.20;3.50;;;;;;;27.13;35.74;100983.38;104355;1287;70424;-85
2023/09/03 08:39:42;;;;;;;3.80;3.10;;;;;;;27.13;35.64;100979.96;104309;1288;69243;-85
2023/09/03 08:42:07;;;;;;;3.90;3.50;;;;;;;27.14;35.58;100977.45;104797;1288;74283;-85
2023/09/03 08:44:42;;;;;;;4.20;3.40;;;;;;;27.16;35.55;100970.37;104496;1288;70670;-85
2023/09/03 08:47:09;;;;;;;5.60;3.30;;;;;;;27.17;35.59;100970.77;103788;1290;69276;-85
2023/09/03 08:49:35;;;;;;;3.70;3.40;;;;;;;27.19;35.48;100965.83;103825;1288;69704;-85
2023/09/03 08:52:07;;;;;;;3.50;3.20;;;;;;;27.20;35.58;100967.40;104110;1288;70575;-91
2023/09/03 08:54:35;;;;;;;3.90;3.40;;;;;;;27.20;35.50;100967.17;103721;1288;73561;-85
2023/09/03 08:57:01;;;;;;;3.80;3.30;;;;;;;27.21;35.49;100964.67;103760;1287;69323;-85
2023/09/03 08:59:27;;;;;;;4.00;3.60;;;;;;;27.22;35.48;100959.95;103685;1291;69230;-85
2023/09/03 09:01:53;;;;;;;3.90;3.50;;;;;;;27.23;35.50;100952.77;104346;1291;69740;-85
2023/09/03 09:04:19;;;;;;;3.60;3.30;;;;;;;27.24;35.49;100947.48;104145;1288;71151;-85
2023/09/03 09:06:47;;;;;;;4.80;3.20;;;;;;;27.24;35.52;100941.73;103966;1288;69226;-89
2023/09/03 09:09:18;;;;;;;3.90;3.40;;;;;;;27.25;35.48;100940.17;104137;1288;69202;-85
2023/09/03 09:11:47;;;;;;;3.80;3.40;;;;;;;27.27;35.37;100935.19;104111;1286;69310;-85
2023/09/03 09:14:18;;;;;;;4.00;3.40;;;;;;;27.27;35.43;100932.39;103909;1288;69253;-85
2023/09/03 09:16:44;;;;;;;3.50;3.20;;;;;;;27.28;35.39;100931.87;104124;1293;69261;-85
2023/09/03 09:19:09;;;;;;;3.50;3.20;;;;;;;27.28;35.38;100930.93;104147;1288;69442;-85
2023/09/03 09:21:35;;;;;;;5.00;3.40;;;;;;;27.28;35.35;100928.80;104028;1289;69302;-85
2023/09/03 09:24:05;;;;;;;5.00;3.20;;;;;;;27.28;35.31;100928.55;104090;1289;70456;-85
2023/09/03 09:26:31;;;;;;;3.50;3.20;;;;;;;27.28;35.32;100927.56;104167;1288;69242;-85
2023/09/03 09:29:06;;;;;;;4.60;3.40;;;;;;;27.29;35.30;100923.52;104294;1291;69134;-85
2023/09/03 09:31:33;;;;;;;3.40;3.10;;;;;;;27.31;35.30;100924.05;105021;1286;73642;-85
2023/09/03 09:34:00;;;;;;;3.60;3.30;;;;;;;27.31;35.20;100919.14;104350;1288;69590;-85
2023/09/03 09:36:26;;;;;;;3.50;3.10;;;;;;;27.32;35.26;100920.78;103983;1290;69208;-84
2023/09/03 09:38:52;;;;;;;3.30;3.00;;;;;;;27.33;35.27;100918.29;103812;1291;70367;-85
2023/09/03 09:41:20;;;;;;;3.40;2.90;;;;;;;27.33;35.16;100913.23;103918;1288;69253;-85
2023/09/03 09:43:48;;;;;;;4.30;3.10;;;;;;;27.33;35.26;100908.29;103949;1288;69308;-85
2023/09/03 09:46:34;;;;;;;3.00;2.60;;;;;;;27.34;35.22;100904.77;104007;1288;72451;-85
2023/09/03 09:49:00;;;;;;;3.40;2.90;;;;;;;27.33;35.18;100901.84;103972;1288;69189;-85
2023/09/03 09:51:27;;;;;;;3.60;2.80;;;;;;;27.34;35.15;100896.66;103872;1293;69357;-85
2023/09/03 09:53:56;;;;;;;3.30;2.80;;;;;;;27.33;35.01;100891.97;103944;1289;69333;-84
2023/09/03 09:56:25;;;;;;;2.90;2.60;;;;;;;27.33;34.99;100888.09;103979;1288;73619;-85
2023/09/03 09:58:51;;;;;;;3.90;2.80;;;;;;;27.33;34.87;100883.28;104911;1288;69036;-85
2023/09/03 10:01:16;;;;;;;6.00;2.60;;;;;;;27.34;34.75;100882.30;104107;1288;69306;-85
2023/09/03 10:03:49;;;;;;;2.70;2.50;;;;;;;27.35;34.73;100876.76;103778;1291;69252;-91
2023/09/03 10:06:21;;;;;;;3.30;2.60;;;;;;;27.35;34.62;100875.46;103730;1289;69208;-85
2023/09/03 10:08:49;;;;;;;2.90;2.30;;;;;;;27.35;34.46;100873.69;104071;1288;74492;-85
2023/09/03 10:11:14;;;;;;;4.10;3.00;;;;;;;27.36;34.49;100866.23;104151;1288;69343;-85
2023/09/03 10:13:41;;;;;;;4.20;3.00;;;;;;;27.37;34.31;100862.09;104089;1288;69256;-85
2023/09/03 10:16:07;;;;;;;4.80;2.90;;;;;;;27.37;34.27;100862.70;103920;1287;69256;-85
2023/09/03 10:21:18;;;;;;;3.10;2.40;;;;;;;27.39;34.23;100860.85;103984;1287;74457;-85
2023/09/03 10:23:46;;;;;;;;;;;;;;;27.39;34.31;100859.92;104106;1288;69100;-85
2023/09/03 10:26:22;;;;;;;3.10;2.80;;;;;;;27.37;34.31;100857.17;103768;1290;69065;-85
2023/09/03 10:28:48;;;;;;;4.30;2.50;;;;;;;27.39;34.25;100861.42;103867;1288;69177;-85
2023/09/03 10:31:13;;;;;;;3.60;2.50;;;;;;;27.39;34.18;100857.48;103782;1288;69173;-85
2023/09/03 10:33:42;;;;;;;5.20;2.80;;;;;;;27.39;34.20;100856.36;103620;1293;69338;-91
2023/09/03 10:36:15;;;;;;;3.80;2.50;;;;;;;27.40;34.11;100852.88;103819;1292;69218;-85
2023/09/03 10:38:41;;;;;;;2.70;2.50;;;;;;;27.40;34.01;100850.39;103639;1291;69318;-85
2023/09/03 10:41:33;;;;;;;3.00;2.70;;;;;;;27.41;33.92;100849.30;103803;1288;69220;-85
2023/09/03 10:43:59;;;;;;;2.90;2.70;;;;;;;27.41;33.94;100840.66;103822;1288;69126;-84
2023/09/03 10:46:27;;;;;;;3.20;2.70;;;;;;;27.42;33.95;100832.89;103659;1288;69399;-85
2023/09/03 10:48:57;;;;;;;2.40;2.20;;;;;;;27.43;33.76;100833.55;103933;1288;69261;-85
2023/09/03 10:51:36;;;;;;;2.80;2.60;;;;;;;27.43;33.72;100830.02;103810;1289;69126;-89
2023/09/03 10:54:20;;;;;;;2.70;2.50;;;;;;;27.43;33.62;100825.38;103795;1289;69191;-85
2023/09/03 10:57:04;;;;;;;2.80;2.60;;;;;;;27.44;33.54;100822.58;103838;1288;69099;-85
2023/09/03 10:59:58;;;;;;;3.70;2.60;;;;;;;27.44;33.57;100817.66;103941;1292;73412;-85
2023/09/03 11:02:27;;;;;;;2.60;2.30;;;;;;;27.45;33.45;100815.98;103907;1291;73409;-85
2023/09/03 11:05:24;;;;;;;4.60;2.70;;;;;;;27.45;33.37;100814.59;103744;1291;69200;-85
2023/09/03 11:08:26;;;;;;;3.10;2.70;;;;;;;27.45;33.42;100811.94;103752;1289;69195;-85
2023/09/03 11:10:51;;;;;;;3.30;2.80;;;;;;;27.45;33.41;100809.09;103962;1290;69191;-85
2023/09/03 11:13:17;;;;;;;3.70;2.70;;;;;;;27.46;33.28;100807.50;103764;1288;71213;-85
2023/09/03 11:15:48;;;;;;;2.50;2.30;;;;;;;27.48;33.18;100802.52;103946;1288;69263;-85
2023/09/03 11:20:56;;;;;;;2.80;2.50;;;;;;;27.49;33.17;100792.96;103972;1290;69090;-85
2023/09/03 11:23:21;;;;;;;3.10;2.60;;;;;;;27.49;33.12;100788.06;103678;1291;69209;-85
2023/09/03 11:25:47;;;;;;;2.70;2.50;;;;;;;27.50;33.12;100784.27;103851;1290;69275;-85
2023/09/03 11:28:12;;;;;;;2.60;2.40;;;;;;;27.51;33.04;100785.34;103832;1290;69287;-85
2023/09/03 11:30:43;;;;;;;2.70;2.50;;;;;;;27.51;32.99;100781.52;103819;1290;68374;-85
2023/09/03 11:33:09;;;;;;;2.60;2.40;;;;;;;27.51;32.93;100781.98;103705;1289;69354;-85
2023/09/03 11:35:42;;;;;;;2.70;2.50;;;;;;;27.51;32.86;100777.86;103926;1290;69227;-85
2023/09/03 11:38:07;;;;;;;3.50;2.50;;;;;;;27.51;32.80;100777.17;103804;1294;69164;-85
2023/09/03 11:40:33;;;;;;;4.70;2.70;;;;;;;27.51;32.69;100770.81;103780;1294;69333;-85
2023/09/03 11:42:58;;;;;;;2.90;2.60;;;;;;;27.52;32.66;100764.90;103788;1289;69309;-85